createdAt,value
2019-01-10T00:03:27.190Z,68.97
2019-01-10T00:08:29.202Z,69.26
2019-01-10T00:13:31.265Z,69.25
2019-01-10T00:18:33.237Z,69.61
2019-01-10T00:23:35.293Z,69.70
2019-01-10T00:28:37.321Z,69.92
2019-01-10T00:33:39.339Z,69.84
2019-01-10T00:38:41.377Z,70.07
2019-01-10T00:43:43.442Z,70.28
2019-01-10T00:48:45.747Z,70.25
2019-01-10T00:53:47.782Z,70.61
2019-01-10T00:58:49.793Z,70.73
2019-01-10T01:03:52.487Z,70.64
2019-01-10T01:08:54.487Z,70.41
2019-01-10T01:13:56.639Z,70.71
2019-01-10T01:18:58.654Z,70.79
2019-01-10T01:24:00.674Z,70.86
2019-01-10T01:29:02.677Z,71.00
2019-01-10T01:34:04.692Z,71.32
2019-01-10T01:39:07.512Z,71.35
2019-01-10T01:44:09.542Z,71.57
2019-01-10T01:49:11.595Z,71.58
2019-01-10T01:54:13.632Z,71.66
2019-01-10T01:59:15.658Z,71.72
2019-01-10T02:04:17.724Z,71.88
2019-01-10T02:09:19.740Z,71.87
2019-01-10T02:14:21.791Z,71.66
2019-01-10T02:19:23.780Z,71.73
2019-01-10T02:24:25.805Z,71.51
2019-01-10T02:29:28.091Z,71.73
2019-01-10T02:34:30.308Z,71.55
2019-01-10T02:39:32.568Z,71.50
2019-01-10T02:44:34.591Z,71.48
2019-01-10T02:49:36.609Z,71.47
2019-01-10T02:54:38.609Z,71.63
2019-01-10T02:59:40.619Z,71.53
2019-01-10T03:04:42.678Z,71.46
2019-01-10T03:09:44.730Z,71.48
2019-01-10T03:14:46.812Z,71.35
2019-01-10T03:19:48.836Z,71.70
2019-01-10T03:24:50.921Z,71.70
2019-01-10T03:29:52.955Z,71.64
2019-01-10T03:34:54.980Z,71.66
2019-01-10T03:39:56.993Z,71.79
2019-01-10T03:44:59.015Z,71.70
2019-01-10T03:50:01.036Z,71.80
2019-01-10T03:55:03.440Z,71.87
2019-01-10T04:00:08.942Z,72.22
2019-01-10T04:05:11.440Z,72.06
2019-01-10T04:10:13.993Z,72.17
2019-01-10T04:15:16.259Z,72.15
2019-01-10T04:20:18.445Z,72.35
2019-01-10T04:25:20.490Z,72.15
2019-01-10T04:30:22.546Z,72.23
2019-01-10T04:35:24.569Z,72.51
2019-01-10T04:40:26.523Z,72.87
2019-01-10T04:45:28.520Z,72.73
2019-01-10T04:50:30.739Z,73.05
2019-01-10T04:55:32.776Z,72.83
2019-01-10T05:00:34.779Z,72.90
2019-01-10T05:05:36.813Z,73.18
2019-01-10T05:10:38.873Z,73.39
2019-01-10T05:15:40.963Z,73.86
2019-01-10T05:20:42.976Z,74.23
2019-01-10T05:25:44.984Z,74.39
2019-01-10T05:30:47.018Z,74.24
2019-01-10T05:35:49.485Z,74.00
2019-01-10T05:40:52.242Z,73.74
2019-01-10T05:45:54.338Z,74.03
2019-01-10T05:50:57.278Z,74.08
2019-01-10T05:55:59.300Z,74.38
2019-01-10T06:01:02.511Z,74.31
2019-01-10T06:06:04.629Z,74.16
2019-01-10T06:11:06.681Z,74.06
2019-01-10T06:16:08.720Z,73.34
2019-01-10T06:21:10.729Z,73.82
2019-01-10T06:26:12.732Z,73.87
2019-01-10T06:31:14.859Z,73.84
2019-01-10T06:36:16.914Z,73.58
2019-01-10T06:41:18.903Z,73.88
2019-01-10T06:46:20.891Z,73.86
2019-01-10T06:51:22.951Z,73.95
2019-01-10T06:56:25.036Z,74.26
2019-01-10T07:01:27.090Z,73.96
2019-01-10T07:06:29.312Z,74.07
2019-01-10T07:11:31.570Z,73.96
2019-01-10T07:16:33.573Z,73.92
2019-01-10T07:21:58.971Z,73.57
2019-01-10T07:27:01.010Z,73.58
2019-01-10T07:32:03.146Z,73.55
2019-01-10T07:37:12.696Z,73.03
2019-01-10T07:42:09.376Z,72.74
2019-01-10T07:47:11.414Z,72.75
2019-01-10T07:52:13.622Z,72.43
2019-01-10T07:57:15.702Z,72.20
2019-01-10T08:02:17.703Z,71.51
2019-01-10T08:07:19.991Z,70.01
2019-01-10T08:12:22.071Z,69.63
2019-01-10T08:17:24.107Z,69.23
2019-01-10T08:22:28.046Z,68.35
2019-01-10T08:27:30.214Z,68.81
2019-01-10T08:32:32.244Z,69.57
2019-01-10T08:37:34.251Z,69.69
2019-01-10T08:42:36.307Z,70.06
2019-01-10T08:47:38.299Z,69.78
2019-01-10T08:52:40.331Z,69.72
2019-01-10T08:57:42.313Z,69.49
2019-01-10T09:02:44.350Z,69.18
2019-01-10T09:07:46.363Z,69.52
2019-01-10T09:12:48.508Z,69.18
2019-01-10T09:17:50.546Z,69.18
2019-01-10T09:22:52.537Z,69.64
2019-01-10T09:27:54.835Z,69.81
2019-01-10T09:32:56.834Z,69.09
2019-01-10T09:37:59.233Z,68.79
2019-01-10T09:43:01.492Z,68.73
2019-01-10T09:48:03.518Z,68.08
2019-01-10T09:53:05.497Z,67.19
2019-01-10T09:58:07.505Z,66.24
2019-01-10T10:03:10.377Z,65.18
2019-01-10T10:08:12.410Z,64.02
2019-01-10T10:13:15.252Z,62.71
2019-01-10T10:18:17.363Z,61.54
2019-01-10T10:23:26.803Z,61.50
2019-01-10T10:28:23.324Z,60.88
2019-01-10T10:33:25.321Z,61.85
2019-01-10T10:38:27.329Z,61.73
2019-01-10T10:43:29.389Z,60.03
2019-01-10T10:48:31.403Z,60.38
2019-01-10T10:53:33.647Z,59.13
2019-01-10T10:58:35.674Z,59.17
2019-01-10T11:03:39.674Z,59.50
2019-01-10T11:08:41.694Z,60.01
2019-01-10T11:13:43.879Z,59.23
2019-01-10T11:18:45.926Z,58.75
2019-01-10T11:23:47.939Z,59.85
2019-01-10T11:28:49.996Z,60.74
2019-01-10T11:33:52.323Z,61.99
2019-01-10T11:38:54.345Z,61.90
2019-01-10T11:43:57.667Z,62.13
2019-01-10T11:48:59.676Z,62.26
2019-01-10T11:54:01.689Z,61.53
2019-01-10T11:59:03.670Z,59.90
2019-01-10T12:04:05.720Z,60.02
2019-01-10T12:09:07.784Z,60.08
2019-01-10T12:14:09.799Z,58.96
2019-01-10T12:19:11.859Z,59.03
2019-01-10T12:24:15.721Z,58.96
2019-01-10T12:29:17.757Z,59.67
2019-01-10T12:34:19.791Z,60.53
2019-01-10T12:39:21.795Z,60.72
2019-01-10T12:44:23.851Z,60.40
2019-01-10T12:49:25.949Z,60.12
2019-01-10T12:54:27.934Z,59.93
2019-01-10T12:59:29.976Z,60.57
2019-01-10T13:04:33.980Z,60.21
2019-01-10T13:09:35.954Z,60.52
2019-01-10T13:14:38.020Z,60.99
2019-01-10T13:19:40.055Z,61.38
2019-01-10T13:24:44.156Z,61.00
2019-01-10T13:29:45.935Z,60.95
2019-01-10T13:34:47.874Z,61.27
2019-01-10T13:39:49.895Z,61.52
2019-01-10T13:44:51.842Z,61.32
2019-01-10T13:49:53.848Z,61.27
2019-01-10T13:54:55.952Z,61.08
2019-01-10T13:59:58.092Z,61.38
2019-01-10T14:05:00.240Z,62.27
2019-01-10T14:10:02.897Z,63.25
2019-01-10T14:15:06.802Z,63.76
2019-01-10T14:20:09.117Z,63.51
2019-01-10T14:25:11.225Z,63.45
2019-01-10T14:30:37.856Z,63.11
2019-01-10T14:35:39.907Z,63.32
2019-01-10T14:40:41.948Z,62.69
2019-01-10T14:45:44.067Z,62.62
2019-01-10T14:50:46.383Z,61.85
2019-01-10T14:55:49.526Z,62.46
2019-01-10T15:00:52.573Z,61.44
2019-01-10T15:05:54.844Z,61.43
2019-01-10T15:10:57.087Z,61.73
2019-01-10T15:15:59.035Z,60.98
2019-01-10T15:21:01.082Z,61.16
2019-01-10T15:26:03.208Z,60.81
2019-01-10T15:31:05.201Z,60.93
2019-01-10T15:36:07.238Z,61.52
2019-01-10T15:41:09.731Z,62.11
2019-01-10T15:46:11.901Z,62.75
2019-01-10T15:51:13.948Z,62.48
2019-01-10T15:56:15.969Z,62.04
2019-01-10T16:01:18.003Z,61.62
2019-01-10T16:06:20.012Z,61.88
2019-01-10T16:11:22.048Z,62.58
2019-01-10T16:16:24.366Z,62.75
2019-01-10T16:21:26.487Z,62.31
2019-01-10T16:26:29.603Z,62.49
2019-01-10T16:31:31.604Z,62.40
2019-01-10T16:36:33.879Z,62.10
2019-01-10T16:41:35.962Z,62.29
2019-01-10T16:51:54.286Z,61.95
2019-01-10T16:56:56.257Z,61.41
2019-01-10T17:01:58.257Z,61.68
2019-01-10T17:07:00.270Z,61.67
2019-01-10T17:12:02.361Z,62.34
2019-01-10T17:17:04.432Z,62.07
2019-01-10T17:22:06.553Z,62.29
2019-01-10T17:27:08.751Z,62.09
2019-01-10T17:32:10.795Z,61.68
2019-01-10T17:37:12.858Z,62.29
2019-01-10T17:42:15.548Z,62.65
2019-01-10T17:47:17.945Z,62.81
2019-01-10T17:52:25.058Z,62.44
2019-01-10T17:57:24.247Z,62.28
2019-01-10T18:02:26.547Z,62.21
2019-01-10T18:07:28.878Z,62.76
2019-01-10T18:12:30.914Z,62.27
2019-01-10T18:17:33.179Z,62.15
2019-01-10T18:22:35.239Z,63.25
2019-01-10T18:27:37.231Z,63.48
2019-01-10T18:32:39.263Z,64.09
2019-01-10T18:37:41.359Z,64.53
2019-01-10T18:48:12.754Z,64.46
2019-01-10T18:53:14.880Z,64.72
2019-01-10T18:58:16.911Z,64.52
2019-01-10T19:03:18.977Z,64.50
2019-01-10T19:08:21.059Z,64.16
2019-01-10T19:13:23.079Z,63.99
2019-01-10T19:18:25.130Z,64.25
2019-01-10T19:23:27.443Z,65.33
2019-01-10T19:28:29.437Z,64.08
2019-01-10T19:33:31.558Z,64.35
2019-01-10T19:38:34.262Z,64.29
2019-01-10T19:43:36.611Z,63.25
2019-01-10T19:48:38.651Z,63.78
2019-01-10T19:53:40.668Z,63.88
2019-01-10T19:58:42.697Z,63.94
2019-01-10T20:03:44.837Z,64.17
2019-01-10T20:08:46.855Z,63.00
2019-01-10T20:13:48.969Z,63.39
2019-01-10T20:18:51.000Z,63.55
2019-01-10T20:23:53.087Z,62.67
2019-01-10T20:28:55.117Z,62.22
2019-01-10T20:33:57.099Z,63.07
2019-01-10T20:38:59.160Z,62.13
2019-01-10T20:44:01.430Z,63.12
2019-01-10T20:49:03.585Z,64.37
2019-01-10T20:54:05.634Z,64.08
2019-01-10T20:59:08.164Z,63.84
2019-01-10T21:04:10.250Z,63.29
2019-01-10T21:09:13.082Z,63.43
2019-01-10T21:14:16.516Z,63.50
2019-01-10T21:19:18.574Z,62.68
2019-01-10T21:24:20.600Z,62.04
2019-01-10T21:29:22.704Z,61.70
2019-01-10T21:34:24.750Z,61.97
2019-01-10T21:39:26.839Z,62.18
2019-01-10T21:44:29.052Z,62.41
2019-01-10T21:49:31.880Z,62.37
2019-01-10T21:54:37.656Z,61.95
2019-01-10T22:04:52.158Z,64.17
2019-01-10T22:09:54.745Z,64.41
2019-01-10T22:14:56.811Z,64.82
2019-01-10T22:19:58.860Z,64.88
2019-01-10T22:25:01.139Z,64.80
2019-01-10T22:30:25.034Z,64.19
2019-01-10T22:35:27.376Z,63.16
2019-01-10T22:40:29.474Z,63.00
2019-01-10T22:45:31.569Z,63.31
2019-01-10T22:50:33.640Z,63.66
2019-01-10T22:55:36.043Z,63.54
2019-01-10T23:01:21.074Z,63.64
2019-01-10T23:06:23.212Z,63.63
2019-01-10T23:11:25.319Z,64.09
2019-01-10T23:17:08.599Z,64.46
2019-01-10T23:22:12.595Z,65.13
2019-01-10T23:27:14.633Z,64.60
2019-01-10T23:32:57.448Z,64.57
2019-01-10T23:38:08.272Z,65.48
2019-01-10T23:43:10.309Z,65.05
2019-01-10T23:48:12.334Z,65.07
2019-01-10T23:53:14.369Z,65.30
2019-01-10T23:58:16.575Z,65.15
